createdAt,value
2022-07-27T00:07:55.916Z,77.26
2022-07-27T00:18:01.062Z,77.97
2022-07-27T00:28:04.403Z,77.91
2022-07-27T00:38:08.413Z,79.59
2022-07-27T00:48:11.033Z,79.45
2022-07-27T00:58:15.514Z,79.98
2022-07-27T01:08:18.228Z,80.53
2022-07-27T01:18:30.981Z,80.58
2022-07-27T01:28:35.039Z,81.62
2022-07-27T01:38:37.657Z,82.04
2022-07-27T01:48:41.808Z,81.97
2022-07-27T01:58:45.173Z,82.33
2022-07-27T02:08:49.231Z,82.52
2022-07-27T02:18:52.002Z,82.98
2022-07-27T02:28:56.003Z,82.64
2022-07-27T02:38:59.424Z,82.60
2022-07-27T02:49:03.418Z,82.04
2022-07-27T02:59:06.138Z,82.07
2022-07-27T03:09:10.636Z,82.03
2022-07-27T03:19:13.965Z,82.03
2022-07-27T03:29:18.280Z,82.01
2022-07-27T03:39:20.955Z,81.60
2022-07-27T03:49:24.976Z,81.73
2022-07-27T03:59:27.726Z,81.94
2022-07-27T04:09:31.708Z,82.13
2022-07-27T04:19:34.718Z,81.72
2022-07-27T04:29:38.689Z,81.72
2022-07-27T04:39:41.403Z,82.04
2022-07-27T04:49:45.411Z,81.96
2022-07-27T04:59:48.204Z,82.13
2022-07-27T05:09:52.977Z,81.84
2022-07-27T05:19:55.744Z,81.25
2022-07-27T05:29:59.803Z,80.80
2022-07-27T05:40:02.510Z,80.59
2022-07-27T05:50:07.442Z,79.90
2022-07-27T06:00:12.043Z,78.91
2022-07-27T06:10:16.480Z,78.30
2022-07-27T06:20:20.001Z,78.09
2022-07-27T06:30:23.997Z,79.17
2022-07-27T06:40:29.756Z,78.24
2022-07-27T06:50:34.132Z,77.54
2022-07-27T07:00:37.238Z,76.80
2022-07-27T07:10:42.510Z,75.25
2022-07-27T07:20:45.157Z,73.35
2022-07-27T07:30:49.293Z,71.62
2022-07-27T07:40:51.966Z,68.97
2022-07-27T07:50:56.149Z,68.40
2022-07-27T08:00:58.815Z,68.39
2022-07-27T08:11:02.782Z,67.27
2022-07-27T08:21:05.438Z,68.36
2022-07-27T08:31:14.464Z,71.34
2022-07-27T08:41:22.348Z,68.95
2022-07-27T08:51:26.707Z,64.85
2022-07-27T09:01:32.236Z,61.33
2022-07-27T09:11:37.216Z,60.83
2022-07-27T09:21:40.089Z,56.66
2022-07-27T09:31:46.138Z,55.62
2022-07-27T09:41:50.982Z,53.48
2022-07-27T09:52:00.103Z,52.88
2022-07-27T10:02:03.917Z,50.53
2022-07-27T10:12:08.900Z,49.24
2022-07-27T10:22:11.560Z,48.50
2022-07-27T10:32:24.538Z,48.73
2022-07-27T10:42:29.883Z,46.14
2022-07-27T10:52:44.825Z,45.03
2022-07-27T11:02:47.674Z,44.89
2022-07-27T11:12:54.656Z,43.06
2022-07-27T11:23:50.098Z,44.59
2022-07-27T11:33:23.327Z,44.22
2022-07-27T11:43:34.103Z,29.90
2022-07-27T11:53:40.862Z,29.54
2022-07-27T12:03:46.135Z,32.00
2022-07-27T12:13:58.485Z,24.48
2022-07-27T12:24:01.361Z,23.29
2022-07-27T12:34:07.608Z,39.08
2022-07-27T12:44:11.956Z,29.80
2022-07-27T12:54:15.993Z,26.31
2022-07-27T13:04:18.753Z,27.61
2022-07-27T13:14:22.760Z,35.98
2022-07-27T13:24:25.487Z,39.80
2022-07-27T13:34:29.592Z,42.61
2022-07-27T13:44:59.488Z,41.68
2022-07-27T13:54:56.310Z,40.26
2022-07-27T14:04:58.932Z,42.06
2022-07-27T14:15:02.920Z,40.72
2022-07-27T14:25:06.376Z,42.67
2022-07-27T14:35:12.697Z,44.56
2022-07-27T14:45:15.359Z,43.91
2022-07-27T14:55:19.581Z,42.03
2022-07-27T15:05:22.225Z,42.83
2022-07-27T15:15:26.765Z,43.77
2022-07-27T15:25:29.516Z,44.21
2022-07-27T15:35:33.727Z,46.22
2022-07-27T15:45:38.601Z,45.29
2022-07-27T15:55:43.305Z,45.86
2022-07-27T16:05:47.494Z,46.09
2022-07-27T16:16:09.334Z,45.18
2022-07-27T16:26:12.059Z,45.35
2022-07-27T16:36:17.048Z,45.92
2022-07-27T16:46:19.807Z,48.48
2022-07-27T16:56:23.886Z,48.63
2022-07-27T17:06:27.211Z,50.28
2022-07-27T17:16:31.314Z,51.02
2022-07-27T17:26:34.139Z,51.94
2022-07-27T17:36:38.172Z,50.40
2022-07-27T17:46:40.911Z,48.28
2022-07-27T17:56:44.951Z,48.36
2022-07-27T18:06:47.648Z,47.30
2022-07-27T18:16:51.615Z,50.78
2022-07-27T18:26:59.287Z,52.18
2022-07-27T18:37:03.294Z,53.22
2022-07-27T18:47:06.114Z,53.63
2022-07-27T18:57:11.220Z,54.56
2022-07-27T19:07:15.785Z,55.97
2022-07-27T19:17:20.466Z,56.87
2022-07-27T19:27:23.997Z,57.61
2022-07-27T19:37:30.927Z,58.14
2022-07-27T19:47:34.107Z,58.48
2022-07-27T19:57:38.152Z,59.16
2022-07-27T20:07:41.529Z,58.91
2022-07-27T20:17:45.492Z,59.16
2022-07-27T20:27:48.441Z,59.75
2022-07-27T20:37:52.453Z,60.67
2022-07-27T20:47:55.704Z,62.09
2022-07-27T20:58:00.029Z,63.89
2022-07-27T21:08:02.795Z,64.70
2022-07-27T21:18:07.000Z,65.24
2022-07-27T21:28:09.670Z,65.93
2022-07-27T21:38:15.588Z,66.45
2022-07-27T21:48:18.236Z,67.62
2022-07-27T21:58:22.193Z,68.30
2022-07-27T22:08:24.797Z,68.92
2022-07-27T22:18:29.704Z,69.08
2022-07-27T22:28:32.487Z,68.69
2022-07-27T22:38:36.491Z,68.65
2022-07-27T22:48:39.241Z,69.85
2022-07-27T22:58:43.270Z,71.04
2022-07-27T23:08:45.870Z,71.95
2022-07-27T23:18:49.898Z,72.63
2022-07-27T23:28:52.542Z,73.51
2022-07-27T23:38:56.563Z,74.43
2022-07-27T23:48:59.211Z,75.14
2022-07-27T23:59:03.249Z,74.63
